sensor_id;sensor_type;location;lat;lon;timestamp;P1;durP1;ratioP1;P2;durP2;ratioP2
10403;SDS011;5248;47.374;8.486;2022-12-24T00:00:04;1.33;;;0.80;;
10403;SDS011;5248;47.374;8.486;2022-12-24T00:02:31;0.80;;;0.80;;
10403;SDS011;5248;47.374;8.486;2022-12-24T00:04:57;0.83;;;0.57;;
10403;SDS011;5248;47.374;8.486;2022-12-24T00:07:24;0.97;;;0.80;;
10403;SDS011;5248;47.374;8.486;2022-12-24T00:09:52;1.23;;;0.40;;
10403;SDS011;5248;47.374;8.486;2022-12-24T00:12:19;0.50;;;0.50;;
10403;SDS011;5248;47.374;8.486;2022-12-24T00:14:45;0.40;;;0.40;;
10403;SDS011;5248;47.374;8.486;2022-12-24T00:17:12;0.40;;;0.40;;
10403;SDS011;5248;47.374;8.486;2022-12-24T00:19:39;0.40;;;0.40;;
10403;SDS011;5248;47.374;8.486;2022-12-24T00:22:07;0.30;;;0.30;;
10403;SDS011;5248;47.374;8.486;2022-12-24T00:24:33;0.30;;;0.30;;
10403;SDS011;5248;47.374;8.486;2022-12-24T00:27:01;0.40;;;0.40;;
10403;SDS011;5248;47.374;8.486;2022-12-24T00:29:29;0.67;;;0.40;;
10403;SDS011;5248;47.374;8.486;2022-12-24T00:31:56;3.13;;;0.40;;
10403;SDS011;5248;47.374;8.486;2022-12-24T00:34:23;0.37;;;0.37;;
10403;SDS011;5248;47.374;8.486;2022-12-24T00:36:51;1.03;;;0.23;;
10403;SDS011;5248;47.374;8.486;2022-12-24T00:39:18;0.30;;;0.30;;
10403;SDS011;5248;47.374;8.486;2022-12-24T00:41:44;0.37;;;0.37;;
10403;SDS011;5248;47.374;8.486;2022-12-24T00:44:12;0.20;;;0.20;;
10403;SDS011;5248;47.374;8.486;2022-12-24T00:46:39;0.30;;;0.30;;
10403;SDS011;5248;47.374;8.486;2022-12-24T00:49:06;0.40;;;0.40;;
10403;SDS011;5248;47.374;8.486;2022-12-24T00:51:36;0.70;;;0.50;;
10403;SDS011;5248;47.374;8.486;2022-12-24T00:54:03;0.50;;;0.33;;
10403;SDS011;5248;47.374;8.486;2022-12-24T00:56:29;0.60;;;0.50;;
10403;SDS011;5248;47.374;8.486;2022-12-24T00:58:56;0.60;;;0.47;;
10403;SDS011;5248;47.374;8.486;2022-12-24T01:01:24;0.43;;;0.43;;
10403;SDS011;5248;47.374;8.486;2022-12-24T01:03:50;0.60;;;0.40;;
10403;SDS011;5248;47.374;8.486;2022-12-24T01:06:37;0.77;;;0.40;;
10403;SDS011;5248;47.374;8.486;2022-12-24T01:09:03;0.43;;;0.43;;
10403;SDS011;5248;47.374;8.486;2022-12-24T01:11:29;0.40;;;0.40;;
10403;SDS011;5248;47.374;8.486;2022-12-24T01:13:55;0.50;;;0.50;;
10403;SDS011;5248;47.374;8.486;2022-12-24T01:16:23;1.83;;;0.60;;
10403;SDS011;5248;47.374;8.486;2022-12-24T01:18:53;1.33;;;0.60;;
10403;SDS011;5248;47.374;8.486;2022-12-24T01:21:20;0.50;;;0.50;;
10403;SDS011;5248;47.374;8.486;2022-12-24T01:23:46;0.90;;;0.67;;
10403;SDS011;5248;47.374;8.486;2022-12-24T01:26:13;0.70;;;0.53;;
10403;SDS011;5248;47.374;8.486;2022-12-24T01:28:40;0.70;;;0.70;;
10403;SDS011;5248;47.374;8.486;2022-12-24T01:31:10;1.57;;;0.63;;
10403;SDS011;5248;47.374;8.486;2022-12-24T01:33:39;1.87;;;0.70;;
10403;SDS011;5248;47.374;8.486;2022-12-24T01:36:06;0.67;;;0.67;;
10403;SDS011;5248;47.374;8.486;2022-12-24T01:38:33;0.50;;;0.50;;
10403;SDS011;5248;47.374;8.486;2022-12-24T01:40:59;0.50;;;0.50;;
10403;SDS011;5248;47.374;8.486;2022-12-24T01:43:43;1.17;;;0.77;;
10403;SDS011;5248;47.374;8.486;2022-12-24T01:46:10;1.07;;;0.70;;
10403;SDS011;5248;47.374;8.486;2022-12-24T01:48:43;0.80;;;0.60;;
10403;SDS011;5248;47.374;8.486;2022-12-24T01:51:13;1.53;;;1.23;;
10403;SDS011;5248;47.374;8.486;2022-12-24T01:53:43;0.50;;;0.40;;
10403;SDS011;5248;47.374;8.486;2022-12-24T01:56:11;0.63;;;0.63;;
10403;SDS011;5248;47.374;8.486;2022-12-24T01:58:39;0.83;;;0.60;;
10403;SDS011;5248;47.374;8.486;2022-12-24T02:01:08;0.80;;;0.80;;
10403;SDS011;5248;47.374;8.486;2022-12-24T02:03:35;1.67;;;0.80;;
10403;SDS011;5248;47.374;8.486;2022-12-24T02:06:03;0.57;;;0.57;;
10403;SDS011;5248;47.374;8.486;2022-12-24T02:08:30;0.60;;;0.60;;
10403;SDS011;5248;47.374;8.486;2022-12-24T02:11:08;0.77;;;0.70;;
10403;SDS011;5248;47.374;8.486;2022-12-24T02:13:35;0.77;;;0.40;;
10403;SDS011;5248;47.374;8.486;2022-12-24T02:16:03;1.43;;;0.77;;
10403;SDS011;5248;47.374;8.486;2022-12-24T02:18:37;1.77;;;0.90;;
10403;SDS011;5248;47.374;8.486;2022-12-24T02:21:18;1.33;;;0.70;;
10403;SDS011;5248;47.374;8.486;2022-12-24T02:24:01;1.00;;;0.80;;
10403;SDS011;5248;47.374;8.486;2022-12-24T02:26:49;0.80;;;0.80;;
10403;SDS011;5248;47.374;8.486;2022-12-24T02:29:32;0.87;;;0.37;;
10403;SDS011;5248;47.374;8.486;2022-12-24T02:32:25;0.50;;;0.50;;
10403;SDS011;5248;47.374;8.486;2022-12-24T02:34:57;0.63;;;0.63;;
10403;SDS011;5248;47.374;8.486;2022-12-24T02:37:26;1.77;;;0.60;;
10403;SDS011;5248;47.374;8.486;2022-12-24T02:39:57;1.80;;;0.73;;
10403;SDS011;5248;47.374;8.486;2022-12-24T02:42:30;0.30;;;0.30;;
10403;SDS011;5248;47.374;8.486;2022-12-24T02:45:00;1.93;;;0.40;;
10403;SDS011;5248;47.374;8.486;2022-12-24T02:47:30;0.73;;;0.70;;
10403;SDS011;5248;47.374;8.486;2022-12-24T02:49:58;1.10;;;0.67;;
10403;SDS011;5248;47.374;8.486;2022-12-24T02:52:29;1.07;;;0.67;;
10403;SDS011;5248;47.374;8.486;2022-12-24T02:54:57;2.17;;;1.10;;
10403;SDS011;5248;47.374;8.486;2022-12-24T02:57:29;1.30;;;0.50;;
10403;SDS011;5248;47.374;8.486;2022-12-24T03:00:04;0.73;;;0.47;;
10403;SDS011;5248;47.374;8.486;2022-12-24T03:02:36;0.73;;;0.50;;
10403;SDS011;5248;47.374;8.486;2022-12-24T03:05:12;0.83;;;0.47;;
10403;SDS011;5248;47.374;8.486;2022-12-24T03:07:46;0.97;;;0.37;;
10403;SDS011;5248;47.374;8.486;2022-12-24T03:10:19;1.67;;;0.50;;
10403;SDS011;5248;47.374;8.486;2022-12-24T03:12:48;0.40;;;0.40;;
10403;SDS011;5248;47.374;8.486;2022-12-24T03:15:17;0.70;;;0.60;;
10403;SDS011;5248;47.374;8.486;2022-12-24T03:17:48;1.10;;;0.57;;
10403;SDS011;5248;47.374;8.486;2022-12-24T03:20:17;0.20;;;0.20;;
10403;SDS011;5248;47.374;8.486;2022-12-24T03:22:46;0.40;;;0.40;;
10403;SDS011;5248;47.374;8.486;2022-12-24T03:25:12;0.30;;;0.30;;
10403;SDS011;5248;47.374;8.486;2022-12-24T03:27:39;0.63;;;0.40;;
10403;SDS011;5248;47.374;8.486;2022-12-24T03:30:07;0.33;;;0.30;;
10403;SDS011;5248;47.374;8.486;2022-12-24T03:32:35;0.40;;;0.40;;
10403;SDS011;5248;47.374;8.486;2022-12-24T03:35:03;0.50;;;0.50;;
10403;SDS011;5248;47.374;8.486;2022-12-24T03:37:31;1.03;;;0.43;;
10403;SDS011;5248;47.374;8.486;2022-12-24T03:39:57;0.30;;;0.23;;
10403;SDS011;5248;47.374;8.486;2022-12-24T03:42:23;0.87;;;0.40;;
10403;SDS011;5248;47.374;8.486;2022-12-24T03:44:50;0.70;;;0.50;;
10403;SDS011;5248;47.374;8.486;2022-12-24T03:47:16;0.60;;;0.57;;
10403;SDS011;5248;47.374;8.486;2022-12-24T03:49:43;0.40;;;0.40;;
10403;SDS011;5248;47.374;8.486;2022-12-24T03:52:11;0.87;;;0.70;;
10403;SDS011;5248;47.374;8.486;2022-12-24T03:54:37;0.50;;;0.30;;
10403;SDS011;5248;47.374;8.486;2022-12-24T03:57:04;0.47;;;0.47;;
10403;SDS011;5248;47.374;8.486;2022-12-24T03:59:30;1.23;;;0.70;;
10403;SDS011;5248;47.374;8.486;2022-12-24T04:01:56;0.67;;;0.60;;
10403;SDS011;5248;47.374;8.486;2022-12-24T04:04:23;0.40;;;0.40;;
10403;SDS011;5248;47.374;8.486;2022-12-24T04:06:50;0.50;;;0.50;;
10403;SDS011;5248;47.374;8.486;2022-12-24T04:09:18;0.40;;;0.40;;
10403;SDS011;5248;47.374;8.486;2022-12-24T04:11:44;1.50;;;0.70;;
10403;SDS011;5248;47.374;8.486;2022-12-24T04:14:10;0.50;;;0.50;;
10403;SDS011;5248;47.374;8.486;2022-12-24T04:16:38;0.60;;;0.50;;
10403;SDS011;5248;47.374;8.486;2022-12-24T04:19:06;0.47;;;0.43;;
10403;SDS011;5248;47.374;8.486;2022-12-24T04:21:33;1.33;;;0.63;;
10403;SDS011;5248;47.374;8.486;2022-12-24T04:24:00;0.40;;;0.40;;
10403;SDS011;5248;47.374;8.486;2022-12-24T04:26:27;0.60;;;0.60;;
10403;SDS011;5248;47.374;8.486;2022-12-24T04:28:54;0.60;;;0.60;;
10403;SDS011;5248;47.374;8.486;2022-12-24T04:31:21;0.77;;;0.50;;
10403;SDS011;5248;47.374;8.486;2022-12-24T04:33:49;0.40;;;0.40;;
10403;SDS011;5248;47.374;8.486;2022-12-24T04:36:16;0.67;;;0.47;;
10403;SDS011;5248;47.374;8.486;2022-12-24T04:38:44;0.53;;;0.53;;
10403;SDS011;5248;47.374;8.486;2022-12-24T04:41:12;1.20;;;0.60;;
10403;SDS011;5248;47.374;8.486;2022-12-24T04:43:41;1.03;;;0.63;;
10403;SDS011;5248;47.374;8.486;2022-12-24T04:46:09;0.93;;;0.50;;
10403;SDS011;5248;47.374;8.486;2022-12-24T04:48:41;1.00;;;0.50;;
10403;SDS011;5248;47.374;8.486;2022-12-24T04:51:14;1.77;;;1.10;;
10403;SDS011;5248;47.374;8.486;2022-12-24T04:53:42;0.53;;;0.53;;
10403;SDS011;5248;47.374;8.486;2022-12-24T04:56:11;1.87;;;0.53;;
10403;SDS011;5248;47.374;8.486;2022-12-24T04:58:38;0.60;;;0.60;;
10403;SDS011;5248;47.374;8.486;2022-12-24T05:01:07;1.10;;;0.70;;
10403;SDS011;5248;47.374;8.486;2022-12-24T05:03:37;0.70;;;0.60;;
10403;SDS011;5248;47.374;8.486;2022-12-24T05:06:04;2.17;;;0.83;;
10403;SDS011;5248;47.374;8.486;2022-12-24T05:08:32;1.50;;;0.80;;
10403;SDS011;5248;47.374;8.486;2022-12-24T05:10:59;1.83;;;0.83;;
10403;SDS011;5248;47.374;8.486;2022-12-24T05:13:26;1.40;;;0.83;;
10403;SDS011;5248;47.374;8.486;2022-12-24T05:15:52;3.30;;;0.80;;
10403;SDS011;5248;47.374;8.486;2022-12-24T05:18:21;1.20;;;1.03;;
10403;SDS011;5248;47.374;8.486;2022-12-24T05:20:48;1.40;;;0.80;;
10403;SDS011;5248;47.374;8.486;2022-12-24T05:23:15;1.13;;;0.80;;
10403;SDS011;5248;47.374;8.486;2022-12-24T05:26:00;1.50;;;0.80;;
10403;SDS011;5248;47.374;8.486;2022-12-24T05:28:44;1.23;;;0.70;;
10403;SDS011;5248;47.374;8.486;2022-12-24T05:31:10;2.90;;;1.57;;
10403;SDS011;5248;47.374;8.486;2022-12-24T05:33:38;0.90;;;0.80;;
10403;SDS011;5248;47.374;8.486;2022-12-24T05:36:05;1.50;;;0.83;;
10403;SDS011;5248;47.374;8.486;2022-12-24T05:38:32;0.97;;;0.63;;
10403;SDS011;5248;47.374;8.486;2022-12-24T05:40:58;1.07;;;0.97;;
10403;SDS011;5248;47.374;8.486;2022-12-24T05:43:25;0.80;;;0.53;;
10403;SDS011;5248;47.374;8.486;2022-12-24T05:45:56;1.33;;;0.70;;
10403;SDS011;5248;47.374;8.486;2022-12-24T05:48:23;2.07;;;0.80;;
10403;SDS011;5248;47.374;8.486;2022-12-24T05:50:51;1.37;;;0.60;;
10403;SDS011;5248;47.374;8.486;2022-12-24T05:53:17;1.33;;;0.70;;
10403;SDS011;5248;47.374;8.486;2022-12-24T05:55:44;1.50;;;0.53;;
10403;SDS011;5248;47.374;8.486;2022-12-24T05:58:11;0.87;;;0.80;;
10403;SDS011;5248;47.374;8.486;2022-12-24T06:00:37;3.07;;;0.80;;
10403;SDS011;5248;47.374;8.486;2022-12-24T06:03:04;1.10;;;0.70;;
10403;SDS011;5248;47.374;8.486;2022-12-24T06:05:31;2.00;;;0.80;;
10403;SDS011;5248;47.374;8.486;2022-12-24T06:08:01;1.53;;;0.80;;
10403;SDS011;5248;47.374;8.486;2022-12-24T06:10:27;1.03;;;0.73;;
10403;SDS011;5248;47.374;8.486;2022-12-24T06:12:54;0.57;;;0.53;;
10403;SDS011;5248;47.374;8.486;2022-12-24T06:15:20;1.97;;;0.73;;
10403;SDS011;5248;47.374;8.486;2022-12-24T06:17:47;1.03;;;0.70;;
10403;SDS011;5248;47.374;8.486;2022-12-24T06:20:13;1.03;;;0.70;;
10403;SDS011;5248;47.374;8.486;2022-12-24T06:22:40;3.53;;;1.03;;
10403;SDS011;5248;47.374;8.486;2022-12-24T06:25:08;2.10;;;0.80;;
10403;SDS011;5248;47.374;8.486;2022-12-24T06:27:35;1.13;;;0.80;;
10403;SDS011;5248;47.374;8.486;2022-12-24T06:30:01;3.07;;;0.97;;
10403;SDS011;5248;47.374;8.486;2022-12-24T06:32:28;1.93;;;0.97;;
10403;SDS011;5248;47.374;8.486;2022-12-24T06:34:55;1.40;;;0.63;;
10403;SDS011;5248;47.374;8.486;2022-12-24T06:37:21;1.17;;;0.83;;
10403;SDS011;5248;47.374;8.486;2022-12-24T06:39:48;0.77;;;0.77;;
10403;SDS011;5248;47.374;8.486;2022-12-24T06:42:15;2.03;;;0.67;;
10403;SDS011;5248;47.374;8.486;2022-12-24T06:44:42;0.93;;;0.90;;
10403;SDS011;5248;47.374;8.486;2022-12-24T06:47:08;1.13;;;0.73;;
10403;SDS011;5248;47.374;8.486;2022-12-24T06:49:35;1.63;;;0.83;;
10403;SDS011;5248;47.374;8.486;2022-12-24T06:52:01;1.30;;;0.80;;
10403;SDS011;5248;47.374;8.486;2022-12-24T06:54:28;2.43;;;1.10;;
10403;SDS011;5248;47.374;8.486;2022-12-24T06:56:54;2.53;;;0.80;;
10403;SDS011;5248;47.374;8.486;2022-12-24T06:59:22;0.63;;;0.63;;
10403;SDS011;5248;47.374;8.486;2022-12-24T07:01:49;1.00;;;0.80;;
10403;SDS011;5248;47.374;8.486;2022-12-24T07:04:15;1.43;;;0.97;;
10403;SDS011;5248;47.374;8.486;2022-12-24T07:06:42;2.77;;;0.90;;
10403;SDS011;5248;47.374;8.486;2022-12-24T07:09:10;1.33;;;0.80;;
10403;SDS011;5248;47.374;8.486;2022-12-24T07:11:38;1.47;;;0.90;;
10403;SDS011;5248;47.374;8.486;2022-12-24T07:14:05;1.40;;;1.07;;
10403;SDS011;5248;47.374;8.486;2022-12-24T07:16:32;2.37;;;1.00;;
10403;SDS011;5248;47.374;8.486;2022-12-24T07:18:59;1.63;;;1.00;;
10403;SDS011;5248;47.374;8.486;2022-12-24T07:21:26;2.50;;;1.00;;
10403;SDS011;5248;47.374;8.486;2022-12-24T07:23:52;3.70;;;1.20;;
10403;SDS011;5248;47.374;8.486;2022-12-24T07:26:19;2.13;;;0.97;;
10403;SDS011;5248;47.374;8.486;2022-12-24T07:28:45;0.93;;;0.80;;
10403;SDS011;5248;47.374;8.486;2022-12-24T07:31:12;2.00;;;0.87;;
10403;SDS011;5248;47.374;8.486;2022-12-24T07:33:40;0.87;;;0.77;;
10403;SDS011;5248;47.374;8.486;2022-12-24T07:36:07;0.97;;;0.70;;
10403;SDS011;5248;47.374;8.486;2022-12-24T07:38:36;3.40;;;1.10;;
10403;SDS011;5248;47.374;8.486;2022-12-24T07:41:03;2.67;;;1.07;;
10403;SDS011;5248;47.374;8.486;2022-12-24T07:43:31;1.40;;;1.00;;
10403;SDS011;5248;47.374;8.486;2022-12-24T07:45:58;1.13;;;0.50;;
10403;SDS011;5248;47.374;8.486;2022-12-24T07:48:25;2.07;;;1.00;;
10403;SDS011;5248;47.374;8.486;2022-12-24T07:50:54;1.43;;;0.80;;
10403;SDS011;5248;47.374;8.486;2022-12-24T07:53:21;1.40;;;0.60;;
10403;SDS011;5248;47.374;8.486;2022-12-24T07:55:47;1.40;;;0.90;;
10403;SDS011;5248;47.374;8.486;2022-12-24T07:58:14;0.87;;;0.77;;
10403;SDS011;5248;47.374;8.486;2022-12-24T08:00:40;1.73;;;0.97;;
10403;SDS011;5248;47.374;8.486;2022-12-24T08:03:09;2.47;;;0.90;;
10403;SDS011;5248;47.374;8.486;2022-12-24T08:05:41;0.93;;;0.87;;
10403;SDS011;5248;47.374;8.486;2022-12-24T08:08:09;1.73;;;1.20;;
10403;SDS011;5248;47.374;8.486;2022-12-24T08:10:37;2.67;;;1.10;;
10403;SDS011;5248;47.374;8.486;2022-12-24T08:13:03;1.00;;;0.60;;
10403;SDS011;5248;47.374;8.486;2022-12-24T08:15:30;0.50;;;0.50;;
10403;SDS011;5248;47.374;8.486;2022-12-24T08:17:57;1.50;;;0.80;;
10403;SDS011;5248;47.374;8.486;2022-12-24T08:20:23;1.57;;;0.90;;
10403;SDS011;5248;47.374;8.486;2022-12-24T08:22:51;2.23;;;1.00;;
10403;SDS011;5248;47.374;8.486;2022-12-24T08:25:19;0.50;;;0.50;;
10403;SDS011;5248;47.374;8.486;2022-12-24T08:27:45;1.70;;;0.63;;
10403;SDS011;5248;47.374;8.486;2022-12-24T08:30:12;1.53;;;0.50;;
10403;SDS011;5248;47.374;8.486;2022-12-24T08:32:39;0.87;;;0.63;;
10403;SDS011;5248;47.374;8.486;2022-12-24T08:35:08;2.40;;;0.80;;
10403;SDS011;5248;47.374;8.486;2022-12-24T08:37:35;0.67;;;0.60;;
10403;SDS011;5248;47.374;8.486;2022-12-24T08:40:01;0.70;;;0.70;;
10403;SDS011;5248;47.374;8.486;2022-12-24T08:42:29;0.77;;;0.50;;
10403;SDS011;5248;47.374;8.486;2022-12-24T08:44:56;0.87;;;0.67;;
10403;SDS011;5248;47.374;8.486;2022-12-24T08:47:22;0.90;;;0.50;;
10403;SDS011;5248;47.374;8.486;2022-12-24T08:49:48;1.37;;;0.90;;
10403;SDS011;5248;47.374;8.486;2022-12-24T08:52:16;0.60;;;0.50;;
10403;SDS011;5248;47.374;8.486;2022-12-24T08:54:44;0.77;;;0.70;;
10403;SDS011;5248;47.374;8.486;2022-12-24T08:57:10;1.37;;;0.40;;
10403;SDS011;5248;47.374;8.486;2022-12-24T08:59:39;1.47;;;0.60;;
10403;SDS011;5248;47.374;8.486;2022-12-24T09:02:07;0.90;;;0.70;;
10403;SDS011;5248;47.374;8.486;2022-12-24T09:04:36;1.03;;;1.03;;
10403;SDS011;5248;47.374;8.486;2022-12-24T09:07:03;1.73;;;0.70;;
10403;SDS011;5248;47.374;8.486;2022-12-24T09:09:29;0.77;;;0.57;;
10403;SDS011;5248;47.374;8.486;2022-12-24T09:11:56;1.07;;;0.63;;
10403;SDS011;5248;47.374;8.486;2022-12-24T09:14:23;0.40;;;0.40;;
10403;SDS011;5248;47.374;8.486;2022-12-24T09:16:53;1.13;;;0.60;;
10403;SDS011;5248;47.374;8.486;2022-12-24T09:19:19;0.83;;;0.63;;
10403;SDS011;5248;47.374;8.486;2022-12-24T09:21:45;1.80;;;0.50;;
10403;SDS011;5248;47.374;8.486;2022-12-24T09:24:12;0.63;;;0.60;;
10403;SDS011;5248;47.374;8.486;2022-12-24T09:26:39;0.57;;;0.57;;
10403;SDS011;5248;47.374;8.486;2022-12-24T09:29:06;0.30;;;0.30;;
10403;SDS011;5248;47.374;8.486;2022-12-24T09:31:33;0.47;;;0.43;;
10403;SDS011;5248;47.374;8.486;2022-12-24T09:34:01;1.13;;;0.60;;
10403;SDS011;5248;47.374;8.486;2022-12-24T09:36:28;0.90;;;0.60;;
10403;SDS011;5248;47.374;8.486;2022-12-24T09:38:54;0.57;;;0.43;;
10403;SDS011;5248;47.374;8.486;2022-12-24T09:41:25;0.57;;;0.47;;
10403;SDS011;5248;47.374;8.486;2022-12-24T09:43:58;0.70;;;0.57;;
10403;SDS011;5248;47.374;8.486;2022-12-24T09:46:29;0.93;;;0.40;;
10403;SDS011;5248;47.374;8.486;2022-12-24T09:48:57;0.80;;;0.57;;
10403;SDS011;5248;47.374;8.486;2022-12-24T09:51:31;2.20;;;1.07;;
10403;SDS011;5248;47.374;8.486;2022-12-24T09:54:01;2.13;;;1.90;;
10403;SDS011;5248;47.374;8.486;2022-12-24T09:56:30;2.03;;;1.93;;
10403;SDS011;5248;47.374;8.486;2022-12-24T09:58:59;0.70;;;0.70;;
10403;SDS011;5248;47.374;8.486;2022-12-24T10:01:28;0.73;;;0.70;;
10403;SDS011;5248;47.374;8.486;2022-12-24T10:03:55;1.87;;;0.50;;
10403;SDS011;5248;47.374;8.486;2022-12-24T10:06:23;1.27;;;0.47;;
10403;SDS011;5248;47.374;8.486;2022-12-24T10:08:58;1.27;;;0.43;;
10403;SDS011;5248;47.374;8.486;2022-12-24T10:11:30;1.20;;;0.50;;
10403;SDS011;5248;47.374;8.486;2022-12-24T10:14:06;0.50;;;0.30;;
10403;SDS011;5248;47.374;8.486;2022-12-24T10:16:41;0.83;;;0.53;;
10403;SDS011;5248;47.374;8.486;2022-12-24T10:19:14;1.43;;;0.73;;
10403;SDS011;5248;47.374;8.486;2022-12-24T10:21:46;0.83;;;0.50;;
10403;SDS011;5248;47.374;8.486;2022-12-24T10:24:20;0.53;;;0.30;;
10403;SDS011;5248;47.374;8.486;2022-12-24T10:26:49;1.47;;;0.30;;
10403;SDS011;5248;47.374;8.486;2022-12-24T10:29:20;0.63;;;0.40;;
10403;SDS011;5248;47.374;8.486;2022-12-24T10:31:50;2.90;;;0.70;;
10403;SDS011;5248;47.374;8.486;2022-12-24T10:34:21;1.63;;;0.80;;
10403;SDS011;5248;47.374;8.486;2022-12-24T10:36:50;0.97;;;0.80;;
10403;SDS011;5248;47.374;8.486;2022-12-24T10:39:17;0.73;;;0.67;;
10403;SDS011;5248;47.374;8.486;2022-12-24T10:41:45;1.90;;;0.87;;
10403;SDS011;5248;47.374;8.486;2022-12-24T10:44:13;2.23;;;0.90;;
10403;SDS011;5248;47.374;8.486;2022-12-24T10:46:41;1.20;;;0.83;;
10403;SDS011;5248;47.374;8.486;2022-12-24T10:49:11;1.63;;;1.13;;
10403;SDS011;5248;47.374;8.486;2022-12-24T10:51:41;1.03;;;0.60;;
10403;SDS011;5248;47.374;8.486;2022-12-24T10:54:12;1.67;;;1.20;;
10403;SDS011;5248;47.374;8.486;2022-12-24T10:56:41;0.60;;;0.57;;
10403;SDS011;5248;47.374;8.486;2022-12-24T10:59:21;0.60;;;0.60;;
10403;SDS011;5248;47.374;8.486;2022-12-24T11:01:49;0.80;;;0.80;;
10403;SDS011;5248;47.374;8.486;2022-12-24T11:04:16;0.90;;;0.90;;
10403;SDS011;5248;47.374;8.486;2022-12-24T11:06:52;2.73;;;0.93;;
10403;SDS011;5248;47.374;8.486;2022-12-24T11:09:22;1.67;;;0.60;;
10403;SDS011;5248;47.374;8.486;2022-12-24T11:11:52;0.73;;;0.73;;
10403;SDS011;5248;47.374;8.486;2022-12-24T11:14:20;0.50;;;0.50;;
10403;SDS011;5248;47.374;8.486;2022-12-24T11:16:50;0.33;;;0.33;;
10403;SDS011;5248;47.374;8.486;2022-12-24T11:19:19;1.53;;;0.67;;
10403;SDS011;5248;47.374;8.486;2022-12-24T11:21:56;0.80;;;0.30;;
10403;SDS011;5248;47.374;8.486;2022-12-24T11:24:26;1.90;;;0.70;;
10403;SDS011;5248;47.374;8.486;2022-12-24T11:26:54;0.67;;;0.53;;
10403;SDS011;5248;47.374;8.486;2022-12-24T11:29:51;0.70;;;0.40;;
10403;SDS011;5248;47.374;8.486;2022-12-24T11:32:19;1.57;;;0.40;;
10403;SDS011;5248;47.374;8.486;2022-12-24T11:34:47;0.40;;;0.40;;
10403;SDS011;5248;47.374;8.486;2022-12-24T11:37:15;1.20;;;0.50;;
10403;SDS011;5248;47.374;8.486;2022-12-24T11:39:47;0.67;;;0.43;;
10403;SDS011;5248;47.374;8.486;2022-12-24T11:42:22;0.20;;;0.20;;
10403;SDS011;5248;47.374;8.486;2022-12-24T11:44:51;0.30;;;0.30;;
10403;SDS011;5248;47.374;8.486;2022-12-24T11:47:22;1.13;;;0.40;;
10403;SDS011;5248;47.374;8.486;2022-12-24T11:49:59;1.57;;;1.47;;
10403;SDS011;5248;47.374;8.486;2022-12-24T11:52:45;0.70;;;0.70;;
10403;SDS011;5248;47.374;8.486;2022-12-24T11:55:15;1.13;;;0.93;;
10403;SDS011;5248;47.374;8.486;2022-12-24T11:57:46;0.70;;;0.60;;
10403;SDS011;5248;47.374;8.486;2022-12-24T12:00:17;1.10;;;1.00;;
10403;SDS011;5248;47.374;8.486;2022-12-24T12:02:45;1.07;;;1.07;;
10403;SDS011;5248;47.374;8.486;2022-12-24T12:05:15;0.70;;;0.70;;
10403;SDS011;5248;47.374;8.486;2022-12-24T12:07:43;1.93;;;1.30;;
10403;SDS011;5248;47.374;8.486;2022-12-24T12:10:14;1.63;;;1.10;;
10403;SDS011;5248;47.374;8.486;2022-12-24T12:12:44;1.13;;;1.03;;
10403;SDS011;5248;47.374;8.486;2022-12-24T12:15:14;1.00;;;1.00;;
10403;SDS011;5248;47.374;8.486;2022-12-24T12:17:43;1.13;;;1.07;;
10403;SDS011;5248;47.374;8.486;2022-12-24T12:20:15;1.30;;;1.20;;
10403;SDS011;5248;47.374;8.486;2022-12-24T12:22:45;0.60;;;0.60;;
10403;SDS011;5248;47.374;8.486;2022-12-24T12:25:18;1.80;;;1.23;;
10403;SDS011;5248;47.374;8.486;2022-12-24T12:27:48;1.03;;;1.00;;
10403;SDS011;5248;47.374;8.486;2022-12-24T12:30:17;1.80;;;1.43;;
10403;SDS011;5248;47.374;8.486;2022-12-24T12:32:48;1.27;;;1.13;;
10403;SDS011;5248;47.374;8.486;2022-12-24T12:35:19;1.17;;;1.00;;
10403;SDS011;5248;47.374;8.486;2022-12-24T12:37:51;1.90;;;1.33;;
10403;SDS011;5248;47.374;8.486;2022-12-24T12:40:21;0.90;;;0.90;;
10403;SDS011;5248;47.374;8.486;2022-12-24T12:42:58;1.33;;;1.23;;
10403;SDS011;5248;47.374;8.486;2022-12-24T12:45:33;1.23;;;1.10;;
10403;SDS011;5248;47.374;8.486;2022-12-24T12:48:08;1.37;;;1.20;;
10403;SDS011;5248;47.374;8.486;2022-12-24T12:50:44;1.07;;;0.90;;
10403;SDS011;5248;47.374;8.486;2022-12-24T12:53:19;1.17;;;0.87;;
10403;SDS011;5248;47.374;8.486;2022-12-24T12:55:52;1.60;;;1.00;;
10403;SDS011;5248;47.374;8.486;2022-12-24T12:58:25;1.43;;;1.10;;
10403;SDS011;5248;47.374;8.486;2022-12-24T13:00:54;1.67;;;1.10;;
10403;SDS011;5248;47.374;8.486;2022-12-24T13:03:32;1.53;;;1.10;;
10403;SDS011;5248;47.374;8.486;2022-12-24T13:06:21;1.10;;;1.10;;
10403;SDS011;5248;47.374;8.486;2022-12-24T13:09:00;1.20;;;1.00;;
10403;SDS011;5248;47.374;8.486;2022-12-24T13:11:46;1.90;;;1.23;;
10403;SDS011;5248;47.374;8.486;2022-12-24T13:14:27;1.73;;;0.93;;
10403;SDS011;5248;47.374;8.486;2022-12-24T13:20:03;2.10;;;1.20;;
10403;SDS011;5248;47.374;8.486;2022-12-24T13:22:46;1.83;;;1.00;;
10403;SDS011;5248;47.374;8.486;2022-12-24T13:25:17;1.13;;;1.00;;
10403;SDS011;5248;47.374;8.486;2022-12-24T13:27:48;0.80;;;0.80;;
10403;SDS011;5248;47.374;8.486;2022-12-24T13:30:30;0.83;;;0.83;;
10403;SDS011;5248;47.374;8.486;2022-12-24T13:32:59;1.27;;;1.17;;
10403;SDS011;5248;47.374;8.486;2022-12-24T13:35:35;0.90;;;0.90;;
10403;SDS011;5248;47.374;8.486;2022-12-24T13:44:21;0.60;;;0.60;;
10403;SDS011;5248;47.374;8.486;2022-12-24T13:47:04;0.70;;;0.70;;
10403;SDS011;5248;47.374;8.486;2022-12-24T13:49:45;0.80;;;0.80;;
10403;SDS011;5248;47.374;8.486;2022-12-24T13:52:15;0.80;;;0.80;;
10403;SDS011;5248;47.374;8.486;2022-12-24T13:54:45;1.90;;;1.00;;
10403;SDS011;5248;47.374;8.486;2022-12-24T13:57:22;0.90;;;0.90;;
10403;SDS011;5248;47.374;8.486;2022-12-24T13:59:56;2.20;;;1.10;;
10403;SDS011;5248;47.374;8.486;2022-12-24T14:02:24;1.00;;;1.00;;
10403;SDS011;5248;47.374;8.486;2022-12-24T14:04:51;0.90;;;0.90;;
10403;SDS011;5248;47.374;8.486;2022-12-24T14:07:18;1.20;;;1.00;;
10403;SDS011;5248;47.374;8.486;2022-12-24T14:09:46;0.87;;;0.87;;
10403;SDS011;5248;47.374;8.486;2022-12-24T14:12:14;1.10;;;0.83;;
10403;SDS011;5248;47.374;8.486;2022-12-24T14:14:57;1.73;;;1.17;;
10403;SDS011;5248;47.374;8.486;2022-12-24T14:17:25;1.93;;;1.50;;
10403;SDS011;5248;47.374;8.486;2022-12-24T14:19:54;2.60;;;2.20;;
10403;SDS011;5248;47.374;8.486;2022-12-24T14:22:26;1.83;;;1.63;;
10403;SDS011;5248;47.374;8.486;2022-12-24T14:24:55;2.73;;;1.53;;
10403;SDS011;5248;47.374;8.486;2022-12-24T14:27:24;1.97;;;1.40;;
10403;SDS011;5248;47.374;8.486;2022-12-24T14:29:56;3.00;;;2.10;;
10403;SDS011;5248;47.374;8.486;2022-12-24T14:32:33;2.10;;;1.90;;
10403;SDS011;5248;47.374;8.486;2022-12-24T14:35:07;2.70;;;1.40;;
10403;SDS011;5248;47.374;8.486;2022-12-24T14:37:34;1.80;;;1.17;;
10403;SDS011;5248;47.374;8.486;2022-12-24T14:40:02;1.43;;;1.33;;
10403;SDS011;5248;47.374;8.486;2022-12-24T14:42:32;1.40;;;1.30;;
10403;SDS011;5248;47.374;8.486;2022-12-24T14:45:10;1.10;;;1.10;;
10403;SDS011;5248;47.374;8.486;2022-12-24T14:47:43;1.53;;;1.33;;
10403;SDS011;5248;47.374;8.486;2022-12-24T14:50:25;1.67;;;1.57;;
10403;SDS011;5248;47.374;8.486;2022-12-24T14:52:59;1.20;;;1.10;;
10403;SDS011;5248;47.374;8.486;2022-12-24T14:55:34;3.10;;;1.10;;
10403;SDS011;5248;47.374;8.486;2022-12-24T15:00:51;2.57;;;2.20;;
10403;SDS011;5248;47.374;8.486;2022-12-24T15:03:20;2.33;;;2.20;;
10403;SDS011;5248;47.374;8.486;2022-12-24T15:05:49;1.80;;;1.70;;
10403;SDS011;5248;47.374;8.486;2022-12-24T15:08:17;1.43;;;1.33;;
10403;SDS011;5248;47.374;8.486;2022-12-24T15:10:49;1.40;;;1.30;;
10403;SDS011;5248;47.374;8.486;2022-12-24T15:13:20;2.57;;;2.37;;
10403;SDS011;5248;47.374;8.486;2022-12-24T15:15:50;2.37;;;1.83;;
10403;SDS011;5248;47.374;8.486;2022-12-24T15:18:19;2.50;;;2.30;;
10403;SDS011;5248;47.374;8.486;2022-12-24T15:20:50;2.47;;;1.70;;
10403;SDS011;5248;47.374;8.486;2022-12-24T15:23:18;1.20;;;1.10;;
10403;SDS011;5248;47.374;8.486;2022-12-24T15:25:47;1.37;;;1.27;;